sensor_id;sensor_type;location;lat;lon;timestamp;P1;durP1;ratioP1;P2;durP2;ratioP2
76749;SDS011;66447;35.844;14.468;2023-04-19T00:12:01;21.48;;;6.22;;
76749;SDS011;66447;35.844;14.468;2023-04-19T00:27:03;24.00;;;7.00;;
76749;SDS011;66447;35.844;14.468;2023-04-19T00:42:05;22.67;;;5.97;;
76749;SDS011;66447;35.844;14.468;2023-04-19T00:57:07;20.02;;;9.50;;
76749;SDS011;66447;35.844;14.468;2023-04-19T01:12:09;18.90;;;6.32;;
76749;SDS011;66447;35.844;14.468;2023-04-19T01:27:11;18.63;;;5.35;;
76749;SDS011;66447;35.844;14.468;2023-04-19T01:42:13;20.65;;;6.32;;
76749;SDS011;66447;35.844;14.468;2023-04-19T02:12:18;14.50;;;6.00;;
76749;SDS011;66447;35.844;14.468;2023-04-19T02:27:20;22.20;;;5.97;;
76749;SDS011;66447;35.844;14.468;2023-04-19T02:42:21;16.40;;;6.30;;
76749;SDS011;66447;35.844;14.468;2023-04-19T02:57:24;16.17;;;6.15;;
76749;SDS011;66447;35.844;14.468;2023-04-19T03:12:26;17.23;;;6.57;;
76749;SDS011;66447;35.844;14.468;2023-04-19T03:27:28;14.20;;;6.32;;
76749;SDS011;66447;35.844;14.468;2023-04-19T03:42:29;24.08;;;7.07;;
76749;SDS011;66447;35.844;14.468;2023-04-19T04:12:32;19.48;;;7.07;;
76749;SDS011;66447;35.844;14.468;2023-04-19T04:27:34;19.40;;;7.32;;
76749;SDS011;66447;35.844;14.468;2023-04-19T04:42:36;22.58;;;8.98;;
76749;SDS011;66447;35.844;14.468;2023-04-19T04:57:40;26.08;;;9.35;;
76749;SDS011;66447;35.844;14.468;2023-04-19T05:12:41;21.05;;;7.07;;
76749;SDS011;66447;35.844;14.468;2023-04-19T05:27:43;21.30;;;6.05;;
76749;SDS011;66447;35.844;14.468;2023-04-19T05:42:46;17.70;;;4.30;;
76749;SDS011;66447;35.844;14.468;2023-04-19T05:57:49;19.60;;;5.57;;
76749;SDS011;66447;35.844;14.468;2023-04-19T06:12:51;20.30;;;6.80;;
76749;SDS011;66447;35.844;14.468;2023-04-19T06:27:54;25.20;;;7.20;;
76749;SDS011;66447;35.844;14.468;2023-04-19T06:42:55;23.38;;;4.78;;
76749;SDS011;66447;35.844;14.468;2023-04-19T06:58:00;11.85;;;3.92;;
76749;SDS011;66447;35.844;14.468;2023-04-19T07:13:02;14.63;;;5.05;;
76749;SDS011;66447;35.844;14.468;2023-04-19T07:28:04;14.05;;;3.75;;
76749;SDS011;66447;35.844;14.468;2023-04-19T07:43:06;10.85;;;3.05;;
76749;SDS011;66447;35.844;14.468;2023-04-19T07:58:08;14.95;;;2.83;;
76749;SDS011;66447;35.844;14.468;2023-04-19T08:13:11;16.20;;;4.50;;
76749;SDS011;66447;35.844;14.468;2023-04-19T08:28:13;8.90;;;3.15;;
76749;SDS011;66447;35.844;14.468;2023-04-19T08:43:15;11.77;;;3.10;;
76749;SDS011;66447;35.844;14.468;2023-04-19T08:58:19;9.50;;;2.15;;
76749;SDS011;66447;35.844;14.468;2023-04-19T09:13:21;10.60;;;2.60;;
76749;SDS011;66447;35.844;14.468;2023-04-19T09:28:23;9.20;;;1.97;;
76749;SDS011;66447;35.844;14.468;2023-04-19T09:43:25;5.47;;;1.70;;
76749;SDS011;66447;35.844;14.468;2023-04-19T09:58:27;10.73;;;2.20;;
76749;SDS011;66447;35.844;14.468;2023-04-19T10:13:29;4.20;;;1.60;;
76749;SDS011;66447;35.844;14.468;2023-04-19T10:28:31;6.70;;;1.73;;
76749;SDS011;66447;35.844;14.468;2023-04-19T10:43:37;7.60;;;2.28;;
76749;SDS011;66447;35.844;14.468;2023-04-19T11:14:10;10.05;;;2.60;;
76749;SDS011;66447;35.844;14.468;2023-04-19T11:29:13;8.38;;;2.35;;
76749;SDS011;66447;35.844;14.468;2023-04-19T11:44:17;7.22;;;2.10;;
76749;SDS011;66447;35.844;14.468;2023-04-19T11:59:22;7.38;;;2.03;;
76749;SDS011;66447;35.844;14.468;2023-04-19T12:14:24;5.05;;;1.88;;
76749;SDS011;66447;35.844;14.468;2023-04-19T12:29:26;9.63;;;2.45;;
76749;SDS011;66447;35.844;14.468;2023-04-19T12:44:28;6.47;;;1.98;;
76749;SDS011;66447;35.844;14.468;2023-04-19T12:59:30;6.25;;;1.95;;
76749;SDS011;66447;35.844;14.468;2023-04-19T13:14:32;6.93;;;1.38;;
76749;SDS011;66447;35.844;14.468;2023-04-19T13:29:34;6.45;;;2.05;;
76749;SDS011;66447;35.844;14.468;2023-04-19T13:44:36;8.68;;;2.20;;
76749;SDS011;66447;35.844;14.468;2023-04-19T13:59:38;6.30;;;1.60;;
76749;SDS011;66447;35.844;14.468;2023-04-19T14:14:42;4.67;;;1.50;;
76749;SDS011;66447;35.844;14.468;2023-04-19T14:29:44;7.87;;;1.70;;
76749;SDS011;66447;35.844;14.468;2023-04-19T14:44:46;5.57;;;1.37;;
76749;SDS011;66447;35.844;14.468;2023-04-19T14:59:49;4.30;;;1.47;;
76749;SDS011;66447;35.844;14.468;2023-04-19T15:14:57;9.27;;;2.10;;
76749;SDS011;66447;35.844;14.468;2023-04-19T15:29:59;8.30;;;1.77;;
76749;SDS011;66447;35.844;14.468;2023-04-19T15:45:01;7.77;;;2.00;;
76749;SDS011;66447;35.844;14.468;2023-04-19T16:00:04;12.73;;;2.47;;
76749;SDS011;66447;35.844;14.468;2023-04-19T16:15:08;9.82;;;1.75;;
76749;SDS011;66447;35.844;14.468;2023-04-19T16:30:10;8.13;;;2.00;;
76749;SDS011;66447;35.844;14.468;2023-04-19T16:45:13;10.48;;;2.30;;
76749;SDS011;66447;35.844;14.468;2023-04-19T17:00:17;8.32;;;2.30;;
76749;SDS011;66447;35.844;14.468;2023-04-19T17:30:59;9.18;;;3.40;;
76749;SDS011;66447;35.844;14.468;2023-04-19T17:46:01;10.30;;;3.17;;
76749;SDS011;66447;35.844;14.468;2023-04-19T18:01:03;9.50;;;3.25;;
76749;SDS011;66447;35.844;14.468;2023-04-19T18:16:05;10.10;;;3.22;;
76749;SDS011;66447;35.844;14.468;2023-04-19T18:31:08;8.40;;;3.10;;
76749;SDS011;66447;35.844;14.468;2023-04-19T18:46:10;8.80;;;2.97;;
76749;SDS011;66447;35.844;14.468;2023-04-19T19:01:11;9.35;;;3.53;;
76749;SDS011;66447;35.844;14.468;2023-04-19T19:16:13;11.75;;;3.33;;
76749;SDS011;66447;35.844;14.468;2023-04-19T19:31:15;12.20;;;3.80;;
76749;SDS011;66447;35.844;14.468;2023-04-19T19:46:18;11.63;;;3.85;;
76749;SDS011;66447;35.844;14.468;2023-04-19T20:01:19;9.48;;;3.30;;
76749;SDS011;66447;35.844;14.468;2023-04-19T20:16:21;11.90;;;3.92;;
76749;SDS011;66447;35.844;14.468;2023-04-19T20:31:22;13.35;;;3.58;;
76749;SDS011;66447;35.844;14.468;2023-04-19T20:46:24;12.98;;;3.85;;
76749;SDS011;66447;35.844;14.468;2023-04-19T21:01:26;16.20;;;4.10;;
76749;SDS011;66447;35.844;14.468;2023-04-19T21:16:27;9.85;;;4.18;;
76749;SDS011;66447;35.844;14.468;2023-04-19T21:31:29;11.52;;;3.60;;
76749;SDS011;66447;35.844;14.468;2023-04-19T21:46:30;12.23;;;4.18;;
76749;SDS011;66447;35.844;14.468;2023-04-19T22:01:32;12.43;;;4.25;;
76749;SDS011;66447;35.844;14.468;2023-04-19T22:16:34;10.50;;;3.50;;
76749;SDS011;66447;35.844;14.468;2023-04-19T22:31:36;11.70;;;3.40;;
76749;SDS011;66447;35.844;14.468;2023-04-19T22:46:37;9.85;;;3.25;;
76749;SDS011;66447;35.844;14.468;2023-04-19T23:01:39;8.88;;;2.92;;
76749;SDS011;66447;35.844;14.468;2023-04-19T23:16:40;11.52;;;2.65;;
76749;SDS011;66447;35.844;14.468;2023-04-19T23:31:44;5.78;;;2.00;;
76749;SDS011;66447;35.844;14.468;2023-04-19T23:46:46;6.55;;;1.67;;
